<?xml version="1.0" encoding="UTF-8" standalone="no" ?>
<gpx xmlns="http://www.topografix.com/GPX/1/1" xmlns:xsi="http://www.w3.org/2001/XMLSchema-instance" xsi:schemaLocation="http://www.topografix.com/GPX/1/1 http://www.topografix.com/GPX/1/1/gpx.xsd" version="1.1" creator="VisuGPX - https://www.visugpx.com">
  <metadata>
    <name>BOBBY 2015 en solo </name>
    <desc><![CDATA[Le bobby organisation faite par la caserne de Bertrix chaque année au mois de juin 
ravitaillement BBQ bar etc etc ??!]]></desc>
  </metadata>
  <trk>
    <name><![CDATA[solo scooby]]></name>
    <trkseg>
      <trkpt lat="49.88028" lon="5.23857">
        <ele>395</ele>
        <time>2015-06-19T05:10:06Z</time>
      </trkpt>
      <trkpt lat="49.88026" lon="5.23849">
        <ele>395</ele>
        <time>2015-06-19T05:10:11Z</time>
      </trkpt>
      <trkpt lat="49.88022" lon="5.23838">
        <ele>395</ele>
        <time>2015-06-19T05:10:16Z</time>
      </trkpt>
      <trkpt lat="49.88018" lon="5.23829">
        <ele>395</ele>
        <time>2015-06-19T05:10:21Z</time>
      </trkpt>
      <trkpt lat="49.88012" lon="5.23817">
        <ele>395</ele>
        <time>2015-06-19T05:10:27Z</time>
      </trkpt>
      <trkpt lat="49.88008" lon="5.23804">
        <ele>395</ele>
        <time>2015-06-19T05:10:33Z</time>
      </trkpt>
      <trkpt lat="49.88005" lon="5.23794">
        <ele>394</ele>
        <time>2015-06-19T05:10:38Z</time>
      </trkpt>
      <trkpt lat="49.88001" lon="5.23784">
        <ele>394</ele>
        <time>2015-06-19T05:10:43Z</time>
      </trkpt>
      <trkpt lat="49.88" lon="5.2378">
        <ele>394</ele>
        <time>2015-06-19T05:10:48Z</time>
      </trkpt>
      <trkpt lat="49.87999" lon="5.23776">
        <ele>394</ele>
        <time>2015-06-19T05:10:54Z</time>
      </trkpt>
      <trkpt lat="49.87997" lon="5.23772">
        <ele>394</ele>
        <time>2015-06-19T05:11:00Z</time>
      </trkpt>
      <trkpt lat="49.87998" lon="5.23773">
        <ele>393</ele>
        <time>2015-06-19T05:11:05Z</time>
      </trkpt>
      <trkpt lat="49.87999" lon="5.23774">
        <ele>394</ele>
        <time>2015-06-19T05:11:11Z</time>
      </trkpt>
      <trkpt lat="49.88" lon="5.23775">
        <ele>394</ele>
        <time>2015-06-19T05:11:16Z</time>
      </trkpt>
      <trkpt lat="49.88003" lon="5.23777">
        <ele>394</ele>
        <time>2015-06-19T05:11:22Z</time>
      </trkpt>
      <trkpt lat="49.88004" lon="5.23778">
        <ele>394</ele>
        <time>2015-06-19T05:11:28Z</time>
      </trkpt>
      <trkpt lat="49.88005" lon="5.23778">
        <ele>393</ele>
        <time>2015-06-19T05:11:33Z</time>
      </trkpt>
      <trkpt lat="49.88005" lon="5.23778">
        <ele>393</ele>
        <time>2015-06-19T05:11:38Z</time>
      </trkpt>
      <trkpt lat="49.88004" lon="5.23778">
        <ele>394</ele>
        <time>2015-06-19T05:11:43Z</time>
      </trkpt>
      <trkpt lat="49.88002" lon="5.23776">
        <ele>394</ele>
        <time>2015-06-19T05:11:48Z</time>
      </trkpt>
      <trkpt lat="49.88003" lon="5.23775">
        <ele>393</ele>
        <time>2015-06-19T05:11:54Z</time>
      </trkpt>
      <trkpt lat="49.88003" lon="5.23775">
        <ele>393</ele>
        <time>2015-06-19T05:11:59Z</time>
      </trkpt>
      <trkpt lat="49.88004" lon="5.23774">
        <ele>394</ele>
        <time>2015-06-19T05:12:04Z</time>
      </trkpt>
      <trkpt lat="49.88003" lon="5.23774">
        <ele>394</ele>
        <time>2015-06-19T05:12:10Z</time>
      </trkpt>
      <trkpt lat="49.88003" lon="5.23773">
        <ele>394</ele>
        <time>2015-06-19T05:12:15Z</time>
      </trkpt>
      <trkpt lat="49.88003" lon="5.23773">
        <ele>394</ele>
        <time>2015-06-19T05:12:20Z</time>
      </trkpt>
      <trkpt lat="49.88002" lon="5.23774">
        <ele>393</ele>
        <time>2015-06-19T05:12:25Z</time>
      </trkpt>
      <trkpt lat="49.87998" lon="5.2378">
        <ele>393</ele>
        <time>2015-06-19T05:14:43Z</time>
      </trkpt>
      <trkpt lat="49.87999" lon="5.23781">
        <ele>393</ele>
        <time>2015-06-19T05:14:49Z</time>
      </trkpt>
      <trkpt lat="49.88" lon="5.23781">
        <ele>393</ele>
        <time>2015-06-19T05:14:55Z</time>
      </trkpt>
      <trkpt lat="49.87999" lon="5.23781">
        <ele>393</ele>
        <time>2015-06-19T05:15:00Z</time>
      </trkpt>
      <trkpt lat="49.87998" lon="5.23781">
        <ele>393</ele>
        <time>2015-06-19T05:15:05Z</time>
      </trkpt>
      <trkpt lat="49.87998" lon="5.23781">
        <ele>393</ele>
        <time>2015-06-19T05:15:11Z</time>
      </trkpt>
      <trkpt lat="49.87999" lon="5.23781">
        <ele>393</ele>
        <time>2015-06-19T05:15:17Z</time>
      </trkpt>
      <trkpt lat="49.87999" lon="5.23781">
        <ele>394</ele>
        <time>2015-06-19T05:15:23Z</time>
      </trkpt>
      <trkpt lat="49.87999" lon="5.23781">
        <ele>394</ele>
        <time>2015-06-19T05:15:29Z</time>
      </trkpt>
      <trkpt lat="49.87999" lon="5.23783">
        <ele>393</ele>
        <time>2015-06-19T05:15:34Z</time>
      </trkpt>
      <trkpt lat="49.88" lon="5.23783">
        <ele>393</ele>
        <time>2015-06-19T05:15:40Z</time>
      </trkpt>
      <trkpt lat="49.88" lon="5.23782">
        <ele>393</ele>
        <time>2015-06-19T05:15:45Z</time>
      </trkpt>
      <trkpt lat="49.88001" lon="5.23781">
        <ele>393</ele>
        <time>2015-06-19T05:15:50Z</time>
      </trkpt>
      <trkpt lat="49.88002" lon="5.2378">
        <ele>393</ele>
        <time>2015-06-19T05:15:55Z</time>
      </trkpt>
      <trkpt lat="49.88002" lon="5.23781">
        <ele>393</ele>
        <time>2015-06-19T05:16:01Z</time>
      </trkpt>
      <trkpt lat="49.88002" lon="5.23781">
        <ele>393</ele>
        <time>2015-06-19T05:16:08Z</time>
      </trkpt>
      <trkpt lat="49.88002" lon="5.23781">
        <ele>393</ele>
        <time>2015-06-19T05:16:13Z</time>
      </trkpt>
      <trkpt lat="49.88002" lon="5.23782">
        <ele>393</ele>
        <time>2015-06-19T05:16:19Z</time>
      </trkpt>
      <trkpt lat="49.88002" lon="5.23782">
        <ele>393</ele>
        <time>2015-06-19T05:16:26Z</time>
      </trkpt>
      <trkpt lat="49.88002" lon="5.23782">
        <ele>393</ele>
        <time>2015-06-19T05:16:32Z</time>
      </trkpt>
      <trkpt lat="49.88001" lon="5.23783">
        <ele>393</ele>
        <time>2015-06-19T05:16:37Z</time>
      </trkpt>
      <trkpt lat="49.88001" lon="5.23782">
        <ele>393</ele>
        <time>2015-06-19T05:16:42Z</time>
      </trkpt>
      <trkpt lat="49.88001" lon="5.23782">
        <ele>393</ele>
        <time>2015-06-19T05:16:47Z</time>
      </trkpt>
      <trkpt lat="49.88" lon="5.23782">
        <ele>393</ele>
        <time>2015-06-19T05:16:52Z</time>
      </trkpt>
      <trkpt lat="49.88" lon="5.23782">
        <ele>393</ele>
        <time>2015-06-19T05:16:58Z</time>
      </trkpt>
      <trkpt lat="49.88" lon="5.23781">
        <ele>393</ele>
        <time>2015-06-19T05:17:03Z</time>
      </trkpt>
      <trkpt lat="49.88001" lon="5.23782">
        <ele>393</ele>
        <time>2015-06-19T05:17:09Z</time>
      </trkpt>
      <trkpt lat="49.88002" lon="5.23783">
        <ele>393</ele>
        <time>2015-06-19T05:17:15Z</time>
      </trkpt>
      <trkpt lat="49.88002" lon="5.23783">
        <ele>393</ele>
        <time>2015-06-19T05:17:21Z</time>
      </trkpt>
      <trkpt lat="49.88004" lon="5.23784">
        <ele>393</ele>
        <time>2015-06-19T05:17:26Z</time>
      </trkpt>
      <trkpt lat="49.88004" lon="5.23783">
        <ele>394</ele>
        <time>2015-06-19T05:17:32Z</time>
      </trkpt>
      <trkpt lat="49.88005" lon="5.23782">
        <ele>393</ele>
        <time>2015-06-19T05:17:37Z</time>
      </trkpt>
      <trkpt lat="49.88006" lon="5.2378">
        <ele>393</ele>
        <time>2015-06-19T05:17:42Z</time>
      </trkpt>
      <trkpt lat="49.88007" lon="5.23779">
        <ele>393</ele>
        <time>2015-06-19T05:17:48Z</time>
      </trkpt>
      <trkpt lat="49.88007" lon="5.23779">
        <ele>393</ele>
        <time>2015-06-19T05:17:53Z</time>
      </trkpt>
      <trkpt lat="49.88009" lon="5.23778">
        <ele>393</ele>
        <time>2015-06-19T05:17:59Z</time>
      </trkpt>
      <trkpt lat="49.88009" lon="5.23778">
        <ele>393</ele>
        <time>2015-06-19T05:18:05Z</time>
      </trkpt>
      <trkpt lat="49.8801" lon="5.23778">
        <ele>394</ele>
        <time>2015-06-19T05:18:11Z</time>
      </trkpt>
      <trkpt lat="49.88011" lon="5.23777">
        <ele>394</ele>
        <time>2015-06-19T05:18:17Z</time>
      </trkpt>
      <trkpt lat="49.8801" lon="5.23778">
        <ele>393</ele>
        <time>2015-06-19T05:18:23Z</time>
      </trkpt>
      <trkpt lat="49.88009" lon="5.23779">
        <ele>393</ele>
        <time>2015-06-19T05:18:28Z</time>
      </trkpt>
      <trkpt lat="49.88007" lon="5.23778">
        <ele>393</ele>
        <time>2015-06-19T05:18:34Z</time>
      </trkpt>
      <trkpt lat="49.88006" lon="5.23779">
        <ele>393</ele>
        <time>2015-06-19T05:18:39Z</time>
      </trkpt>
      <trkpt lat="49.88006" lon="5.23779">
        <ele>393</ele>
        <time>2015-06-19T05:18:45Z</time>
      </trkpt>
      <trkpt lat="49.88003" lon="5.23779">
        <ele>393</ele>
        <time>2015-06-19T05:18:50Z</time>
      </trkpt>
      <trkpt lat="49.88002" lon="5.23778">
        <ele>393</ele>
        <time>2015-06-19T05:18:55Z</time>
      </trkpt>
      <trkpt lat="49.88002" lon="5.23777">
        <ele>393</ele>
        <time>2015-06-19T05:19:01Z</time>
      </trkpt>
      <trkpt lat="49.88" lon="5.23778">
        <ele>393</ele>
        <time>2015-06-19T05:19:07Z</time>
      </trkpt>
      <trkpt lat="49.87999" lon="5.23779">
        <ele>393</ele>
        <time>2015-06-19T05:19:12Z</time>
      </trkpt>
      <trkpt lat="49.88" lon="5.23779">
        <ele>393</ele>
        <time>2015-06-19T05:19:17Z</time>
      </trkpt>
      <trkpt lat="49.87998" lon="5.2378">
        <ele>393</ele>
        <time>2015-06-19T05:19:22Z</time>
      </trkpt>
      <trkpt lat="49.87997" lon="5.23783">
        <ele>393</ele>
        <time>2015-06-19T05:19:28Z</time>
      </trkpt>
      <trkpt lat="49.87998" lon="5.23784">
        <ele>394</ele>
        <time>2015-06-19T05:19:34Z</time>
      </trkpt>
      <trkpt lat="49.87999" lon="5.23781">
        <ele>394</ele>
        <time>2015-06-19T05:19:39Z</time>
      </trkpt>
      <trkpt lat="49.88007" lon="5.23764">
        <ele>393</ele>
        <time>2015-06-19T05:19:45Z</time>
      </trkpt>
      <trkpt lat="49.88004" lon="5.23762">
        <ele>394</ele>
        <time>2015-06-19T05:19:50Z</time>
      </trkpt>
      <trkpt lat="49.87998" lon="5.23759">
        <ele>394</ele>
        <time>2015-06-19T05:19:56Z</time>
      </trkpt>
      <trkpt lat="49.87994" lon="5.23755">
        <ele>393</ele>
        <time>2015-06-19T05:20:01Z</time>
      </trkpt>
      <trkpt lat="49.87991" lon="5.23749">
        <ele>393</ele>
        <time>2015-06-19T05:20:06Z</time>
      </trkpt>
      <trkpt lat="49.87988" lon="5.23739">
        <ele>393</ele>
        <time>2015-06-19T05:20:12Z</time>
      </trkpt>
      <trkpt lat="49.8799" lon="5.2373">
        <ele>393</ele>
        <time>2015-06-19T05:20:17Z</time>
      </trkpt>
      <trkpt lat="49.87993" lon="5.23723">
        <ele>393</ele>
        <time>2015-06-19T05:20:22Z</time>
      </trkpt>
      <trkpt lat="49.87997" lon="5.23715">
        <ele>393</ele>
        <time>2015-06-19T05:20:27Z</time>
      </trkpt>
      <trkpt lat="49.88001" lon="5.23707">
        <ele>392</ele>
        <time>2015-06-19T05:20:32Z</time>
      </trkpt>
      <trkpt lat="49.88005" lon="5.23696">
        <ele>392</ele>
        <time>2015-06-19T05:20:38Z</time>
      </trkpt>
      <trkpt lat="49.88009" lon="5.23688">
        <ele>391</ele>
        <time>2015-06-19T05:20:43Z</time>
      </trkpt>
      <trkpt lat="49.88012" lon="5.23679">
        <ele>391</ele>
        <time>2015-06-19T05:20:49Z</time>
      </trkpt>
      <trkpt lat="49.88013" lon="5.23676">
        <ele>391</ele>
        <time>2015-06-19T05:20:54Z</time>
      </trkpt>
      <trkpt lat="49.88016" lon="5.23675">
        <ele>391</ele>
        <time>2015-06-19T05:21:00Z</time>
      </trkpt>
      <trkpt lat="49.88018" lon="5.23671">
        <ele>391</ele>
        <time>2015-06-19T05:21:05Z</time>
      </trkpt>
      <trkpt lat="49.88023" lon="5.23664">
        <ele>391</ele>
        <time>2015-06-19T05:21:11Z</time>
      </trkpt>
      <trkpt lat="49.88026" lon="5.23657">
        <ele>390</ele>
        <time>2015-06-19T05:21:16Z</time>
      </trkpt>
      <trkpt lat="49.88027" lon="5.23653">
        <ele>390</ele>
        <time>2015-06-19T05:21:21Z</time>
      </trkpt>
      <trkpt lat="49.88031" lon="5.23644">
        <ele>390</ele>
        <time>2015-06-19T05:21:27Z</time>
      </trkpt>
      <trkpt lat="49.88036" lon="5.23638">
        <ele>390</ele>
        <time>2015-06-19T05:21:32Z</time>
      </trkpt>
      <trkpt lat="49.88041" lon="5.2363">
        <ele>389</ele>
        <time>2015-06-19T05:21:38Z</time>
      </trkpt>
      <trkpt lat="49.88045" lon="5.2362">
        <ele>389</ele>
        <time>2015-06-19T05:21:44Z</time>
      </trkpt>
      <trkpt lat="49.8805" lon="5.23613">
        <ele>388</ele>
        <time>2015-06-19T05:21:49Z</time>
      </trkpt>
      <trkpt lat="49.88054" lon="5.23605">
        <ele>389</ele>
        <time>2015-06-19T05:21:54Z</time>
      </trkpt>
      <trkpt lat="49.88058" lon="5.23597">
        <ele>388</ele>
        <time>2015-06-19T05:21:59Z</time>
      </trkpt>
      <trkpt lat="49.88064" lon="5.23589">
        <ele>388</ele>
        <time>2015-06-19T05:22:05Z</time>
      </trkpt>
      <trkpt lat="49.88068" lon="5.23579">
        <ele>388</ele>
        <time>2015-06-19T05:22:11Z</time>
      </trkpt>
      <trkpt lat="49.88074" lon="5.23569">
        <ele>387</ele>
        <time>2015-06-19T05:22:17Z</time>
      </trkpt>
      <trkpt lat="49.88078" lon="5.23561">
        <ele>387</ele>
        <time>2015-06-19T05:22:22Z</time>
      </trkpt>
      <trkpt lat="49.88082" lon="5.23553">
        <ele>387</ele>
        <time>2015-06-19T05:22:27Z</time>
      </trkpt>
      <trkpt lat="49.88086" lon="5.23545">
        <ele>387</ele>
        <time>2015-06-19T05:22:32Z</time>
      </trkpt>
      <trkpt lat="49.8809" lon="5.23536">
        <ele>386</ele>
        <time>2015-06-19T05:22:38Z</time>
      </trkpt>
      <trkpt lat="49.88095" lon="5.23526">
        <ele>386</ele>
        <time>2015-06-19T05:22:44Z</time>
      </trkpt>
      <trkpt lat="49.88099" lon="5.23518">
        <ele>386</ele>
        <time>2015-06-19T05:22:49Z</time>
      </trkpt>
      <trkpt lat="49.88103" lon="5.23509">
        <ele>386</ele>
        <time>2015-06-19T05:22:54Z</time>
      </trkpt>
      <trkpt lat="49.88108" lon="5.23499">
        <ele>386</ele>
        <time>2015-06-19T05:23:00Z</time>
      </trkpt>
      <trkpt lat="49.88112" lon="5.23491">
        <ele>385</ele>
        <time>2015-06-19T05:23:05Z</time>
      </trkpt>
      <trkpt lat="49.88118" lon="5.23485">
        <ele>386</ele>
        <time>2015-06-19T05:23:10Z</time>
      </trkpt>
      <trkpt lat="49.88121" lon="5.23477">
        <ele>385</ele>
        <time>2015-06-19T05:23:15Z</time>
      </trkpt>
      <trkpt lat="49.88126" lon="5.23466">
        <ele>385</ele>
        <time>2015-06-19T05:23:21Z</time>
      </trkpt>
      <trkpt lat="49.88129" lon="5.23456">
        <ele>385</ele>
        <time>2015-06-19T05:23:26Z</time>
      </trkpt>
      <trkpt lat="49.88134" lon="5.23446">
        <ele>385</ele>
        <time>2015-06-19T05:23:32Z</time>
      </trkpt>
      <trkpt lat="49.88139" lon="5.23436">
        <ele>385</ele>
        <time>2015-06-19T05:23:38Z</time>
      </trkpt>
      <trkpt lat="49.88144" lon="5.23429">
        <ele>385</ele>
        <time>2015-06-19T05:23:43Z</time>
      </trkpt>
      <trkpt lat="49.88148" lon="5.23423">
        <ele>385</ele>
        <time>2015-06-19T05:23:48Z</time>
      </trkpt>
      <trkpt lat="49.88153" lon="5.23416">
        <ele>386</ele>
        <time>2015-06-19T05:23:53Z</time>
      </trkpt>
      <trkpt lat="49.88158" lon="5.23408">
        <ele>386</ele>
        <time>2015-06-19T05:23:59Z</time>
      </trkpt>
      <trkpt lat="49.88162" lon="5.234">
        <ele>386</ele>
        <time>2015-06-19T05:24:04Z</time>
      </trkpt>
      <trkpt lat="49.88167" lon="5.23391">
        <ele>386</ele>
        <time>2015-06-19T05:24:10Z</time>
      </trkpt>
      <trkpt lat="49.88172" lon="5.2338">
        <ele>386</ele>
        <time>2015-06-19T05:24:16Z</time>
      </trkpt>
      <trkpt lat="49.88177" lon="5.2337">
        <ele>387</ele>
        <time>2015-06-19T05:24:22Z</time>
      </trkpt>
      <trkpt lat="49.88182" lon="5.23362">
        <ele>387</ele>
        <time>2015-06-19T05:24:27Z</time>
      </trkpt>
      <trkpt lat="49.88188" lon="5.23356">
        <ele>387</ele>
        <time>2015-06-19T05:24:32Z</time>
      </trkpt>
      <trkpt lat="49.88194" lon="5.23354">
        <ele>387</ele>
        <time>2015-06-19T05:24:37Z</time>
      </trkpt>
      <trkpt lat="49.88202" lon="5.23359">
        <ele>387</ele>
        <time>2015-06-19T05:24:43Z</time>
      </trkpt>
      <trkpt lat="49.88206" lon="5.23368">
        <ele>387</ele>
        <time>2015-06-19T05:24:48Z</time>
      </trkpt>
      <trkpt lat="49.88209" lon="5.23376">
        <ele>387</ele>
        <time>2015-06-19T05:24:53Z</time>
      </trkpt>
      <trkpt lat="49.88212" lon="5.23386">
        <ele>388</ele>
        <time>2015-06-19T05:24:59Z</time>
      </trkpt>
      <trkpt lat="49.88214" lon="5.23395">
        <ele>388</ele>
        <time>2015-06-19T05:25:04Z</time>
      </trkpt>
      <trkpt lat="49.88218" lon="5.23405">
        <ele>388</ele>
        <time>2015-06-19T05:25:10Z</time>
      </trkpt>
      <trkpt lat="49.8822" lon="5.23414">
        <ele>388</ele>
        <time>2015-06-19T05:25:15Z</time>
      </trkpt>
      <trkpt lat="49.88222" lon="5.23426">
        <ele>388</ele>
        <time>2015-06-19T05:25:21Z</time>
      </trkpt>
      <trkpt lat="49.88225" lon="5.23435">
        <ele>388</ele>
        <time>2015-06-19T05:25:26Z</time>
      </trkpt>
      <trkpt lat="49.88228" lon="5.23445">
        <ele>388</ele>
        <time>2015-06-19T05:25:31Z</time>
      </trkpt>
      <trkpt lat="49.88231" lon="5.23456">
        <ele>388</ele>
        <time>2015-06-19T05:25:37Z</time>
      </trkpt>
      <trkpt lat="49.88233" lon="5.23465">
        <ele>388</ele>
        <time>2015-06-19T05:25:42Z</time>
      </trkpt>
      <trkpt lat="49.88236" lon="5.23476">
        <ele>388</ele>
        <time>2015-06-19T05:25:48Z</time>
      </trkpt>
      <trkpt lat="49.88238" lon="5.23486">
        <ele>388</ele>
        <time>2015-06-19T05:25:53Z</time>
      </trkpt>
      <trkpt lat="49.88241" lon="5.23497">
        <ele>388</ele>
        <time>2015-06-19T05:25:59Z</time>
      </trkpt>
      <trkpt lat="49.88244" lon="5.23506">
        <ele>388</ele>
        <time>2015-06-19T05:26:04Z</time>
      </trkpt>
      <trkpt lat="49.88248" lon="5.23517">
        <ele>388</ele>
        <time>2015-06-19T05:26:10Z</time>
      </trkpt>
      <trkpt lat="49.88251" lon="5.23526">
        <ele>388</ele>
        <time>2015-06-19T05:26:15Z</time>
      </trkpt>
      <trkpt lat="49.88256" lon="5.23535">
        <ele>388</ele>
        <time>2015-06-19T05:26:20Z</time>
      </trkpt>
      <trkpt lat="49.88261" lon="5.23544">
        <ele>388</ele>
        <time>2015-06-19T05:26:25Z</time>
      </trkpt>
      <trkpt lat="49.88263" lon="5.23557">
        <ele>388</ele>
        <time>2015-06-19T05:26:31Z</time>
      </trkpt>
      <trkpt lat="49.88266" lon="5.23567">
        <ele>388</ele>
        <time>2015-06-19T05:26:36Z</time>
      </trkpt>
      <trkpt lat="49.88269" lon="5.23579">
        <ele>388</ele>
        <time>2015-06-19T05:26:42Z</time>
      </trkpt>
      <trkpt lat="49.88272" lon="5.23589">
        <ele>389</ele>
        <time>2015-06-19T05:26:47Z</time>
      </trkpt>
      <trkpt lat="49.88277" lon="5.23601">
        <ele>388</ele>
        <time>2015-06-19T05:26:53Z</time>
      </trkpt>
      <trkpt lat="49.88282" lon="5.23612">
        <ele>389</ele>
        <time>2015-06-19T05:26:59Z</time>
      </trkpt>
      <trkpt lat="49.88286" lon="5.23622">
        <ele>389</ele>
        <time>2015-06-19T05:27:04Z</time>
      </trkpt>
      <trkpt lat="49.88289" lon="5.23631">
        <ele>389</ele>
        <time>2015-06-19T05:27:09Z</time>
      </trkpt>
      <trkpt lat="49.88292" lon="5.23643">
        <ele>389</ele>
        <time>2015-06-19T05:27:15Z</time>
      </trkpt>
      <trkpt lat="49.88295" lon="5.23652">
        <ele>389</ele>
        <time>2015-06-19T05:27:20Z</time>
      </trkpt>
      <trkpt lat="49.883" lon="5.23662">
        <ele>389</ele>
        <time>2015-06-19T05:27:25Z</time>
      </trkpt>
      <trkpt lat="49.88301" lon="5.23675">
        <ele>389</ele>
        <time>2015-06-19T05:27:31Z</time>
      </trkpt>
      <trkpt lat="49.88383" lon="5.23846">
        <ele>427.9</ele>
        <time>2015-06-19T05:27:31Z</time>
      </trkpt>
      <trkpt lat="49.88454" lon="5.23964">
        <ele>427.5</ele>
        <time>2015-06-19T05:27:31Z</time>
      </trkpt>
      <trkpt lat="49.88529" lon="5.24157">
        <ele>427.2</ele>
        <time>2015-06-19T05:27:31Z</time>
      </trkpt>
      <trkpt lat="49.88575" lon="5.24294">
        <ele>428.2</ele>
        <time>2015-06-19T05:27:31Z</time>
      </trkpt>
      <trkpt lat="49.88628" lon="5.24451">
        <ele>428.1</ele>
        <time>2015-06-19T05:27:31Z</time>
      </trkpt>
      <trkpt lat="49.88704" lon="5.24558">
        <ele>428.4</ele>
        <time>2015-06-19T05:27:31Z</time>
      </trkpt>
      <trkpt lat="49.88842" lon="5.24678">
        <ele>435.5</ele>
        <time>2015-06-19T05:27:31Z</time>
      </trkpt>
      <trkpt lat="49.88946" lon="5.24764">
        <ele>437.6</ele>
        <time>2015-06-19T05:27:31Z</time>
      </trkpt>
      <trkpt lat="49.89011" lon="5.24824">
        <ele>437.6</ele>
        <time>2015-06-19T05:27:31Z</time>
      </trkpt>
      <trkpt lat="49.89056" lon="5.24863">
        <ele>439.1</ele>
        <time>2015-06-19T05:27:31Z</time>
      </trkpt>
      <trkpt lat="49.89088" lon="5.24921">
        <ele>440.2</ele>
        <time>2015-06-19T05:27:31Z</time>
      </trkpt>
      <trkpt lat="49.8913" lon="5.24955">
        <ele>442</ele>
        <time>2015-06-19T05:27:31Z</time>
      </trkpt>
      <trkpt lat="49.89149" lon="5.2502">
        <ele>442.8</ele>
        <time>2015-06-19T05:27:31Z</time>
      </trkpt>
      <trkpt lat="49.89142" lon="5.25125">
        <ele>442.9</ele>
        <time>2015-06-19T05:27:31Z</time>
      </trkpt>
      <trkpt lat="49.89154" lon="5.25185">
        <ele>441.2</ele>
        <time>2015-06-19T05:27:31Z</time>
      </trkpt>
      <trkpt lat="49.89192" lon="5.25217">
        <ele>439.1</ele>
        <time>2015-06-19T05:27:31Z</time>
      </trkpt>
      <trkpt lat="49.89236" lon="5.25281">
        <ele>440.5</ele>
        <time>2015-06-19T05:27:31Z</time>
      </trkpt>
      <trkpt lat="49.89257" lon="5.25371">
        <ele>442.8</ele>
        <time>2015-06-19T05:27:31Z</time>
      </trkpt>
      <trkpt lat="49.89256" lon="5.25472">
        <ele>445.4</ele>
        <time>2015-06-19T05:27:31Z</time>
      </trkpt>
      <trkpt lat="49.89261" lon="5.25537">
        <ele>447</ele>
        <time>2015-06-19T05:27:31Z</time>
      </trkpt>
      <trkpt lat="49.89298" lon="5.25584">
        <ele>449.5</ele>
        <time>2015-06-19T05:27:31Z</time>
      </trkpt>
      <trkpt lat="49.89369" lon="5.25638">
        <ele>453.3</ele>
        <time>2015-06-19T05:27:31Z</time>
      </trkpt>
      <trkpt lat="49.89438" lon="5.25665">
        <ele>454</ele>
        <time>2015-06-19T05:27:31Z</time>
      </trkpt>
      <trkpt lat="49.89502" lon="5.25698">
        <ele>455</ele>
        <time>2015-06-19T05:27:31Z</time>
      </trkpt>
      <trkpt lat="49.89538" lon="5.25781">
        <ele>457.1</ele>
        <time>2015-06-19T05:27:31Z</time>
      </trkpt>
      <trkpt lat="49.89563" lon="5.25908">
        <ele>459.2</ele>
        <time>2015-06-19T05:27:31Z</time>
      </trkpt>
      <trkpt lat="49.89586" lon="5.26">
        <ele>461.3</ele>
        <time>2015-06-19T05:27:31Z</time>
      </trkpt>
      <trkpt lat="49.89637" lon="5.26071">
        <ele>464.3</ele>
        <time>2015-06-19T05:27:31Z</time>
      </trkpt>
      <trkpt lat="49.8969" lon="5.26099">
        <ele>466.3</ele>
        <time>2015-06-19T05:27:31Z</time>
      </trkpt>
      <trkpt lat="49.89727" lon="5.26191">
        <ele>467.2</ele>
        <time>2015-06-19T05:27:31Z</time>
      </trkpt>
      <trkpt lat="49.89756" lon="5.26243">
        <ele>468</ele>
        <time>2015-06-19T05:27:31Z</time>
      </trkpt>
      <trkpt lat="49.89811" lon="5.26232">
        <ele>466.9</ele>
        <time>2015-06-19T05:27:31Z</time>
      </trkpt>
      <trkpt lat="49.89937" lon="5.26191">
        <ele>464.3</ele>
        <time>2015-06-19T05:27:31Z</time>
      </trkpt>
      <trkpt lat="49.89991" lon="5.2618">
        <ele>462.7</ele>
        <time>2015-06-19T05:27:31Z</time>
      </trkpt>
      <trkpt lat="49.90049" lon="5.26215">
        <ele>460.3</ele>
        <time>2015-06-19T05:27:31Z</time>
      </trkpt>
      <trkpt lat="49.90097" lon="5.26236">
        <ele>456.5</ele>
        <time>2015-06-19T05:27:31Z</time>
      </trkpt>
      <trkpt lat="49.90166" lon="5.26204">
        <ele>453</ele>
        <time>2015-06-19T05:27:31Z</time>
      </trkpt>
      <trkpt lat="49.90195" lon="5.26195">
        <ele>452</ele>
        <time>2015-06-19T05:27:31Z</time>
      </trkpt>
      <trkpt lat="49.90265" lon="5.26208">
        <ele>451</ele>
        <time>2015-06-19T05:27:31Z</time>
      </trkpt>
      <trkpt lat="49.90308" lon="5.26228">
        <ele>450</ele>
        <time>2015-06-19T05:27:31Z</time>
      </trkpt>
      <trkpt lat="49.90353" lon="5.2623">
        <ele>450</ele>
        <time>2015-06-19T05:27:31Z</time>
      </trkpt>
      <trkpt lat="49.90377" lon="5.26208">
        <ele>449.7</ele>
        <time>2015-06-19T05:27:31Z</time>
      </trkpt>
      <trkpt lat="49.90397" lon="5.26099">
        <ele>447.4</ele>
        <time>2015-06-19T05:27:31Z</time>
      </trkpt>
      <trkpt lat="49.90422" lon="5.26043">
        <ele>447.6</ele>
        <time>2015-06-19T05:27:31Z</time>
      </trkpt>
      <trkpt lat="49.90458" lon="5.26032">
        <ele>449.3</ele>
        <time>2015-06-19T05:27:31Z</time>
      </trkpt>
      <trkpt lat="49.90511" lon="5.26037">
        <ele>450.4</ele>
        <time>2015-06-19T05:27:31Z</time>
      </trkpt>
      <trkpt lat="49.90564" lon="5.26015">
        <ele>451.1</ele>
        <time>2015-06-19T05:27:31Z</time>
      </trkpt>
      <trkpt lat="49.90596" lon="5.25957">
        <ele>450.8</ele>
        <time>2015-06-19T05:27:31Z</time>
      </trkpt>
      <trkpt lat="49.90639" lon="5.25854">
        <ele>448.7</ele>
        <time>2015-06-19T05:27:31Z</time>
      </trkpt>
      <trkpt lat="49.90693" lon="5.25734">
        <ele>447.5</ele>
        <time>2015-06-19T05:27:31Z</time>
      </trkpt>
      <trkpt lat="49.90727" lon="5.2562">
        <ele>452.7</ele>
        <time>2015-06-19T05:27:31Z</time>
      </trkpt>
      <trkpt lat="49.9074" lon="5.25502">
        <ele>454</ele>
        <time>2015-06-19T05:27:31Z</time>
      </trkpt>
      <trkpt lat="49.90748" lon="5.25359">
        <ele>453.1</ele>
        <time>2015-06-19T05:27:31Z</time>
      </trkpt>
      <trkpt lat="49.90746" lon="5.25256">
        <ele>453.2</ele>
        <time>2015-06-19T05:27:31Z</time>
      </trkpt>
      <trkpt lat="49.90726" lon="5.25097">
        <ele>453.9</ele>
        <time>2015-06-19T05:27:31Z</time>
      </trkpt>
      <trkpt lat="49.90689" lon="5.24878">
        <ele>448.3</ele>
        <time>2015-06-19T05:27:31Z</time>
      </trkpt>
      <trkpt lat="49.90658" lon="5.24811">
        <ele>444.5</ele>
        <time>2015-06-19T05:27:31Z</time>
      </trkpt>
      <trkpt lat="49.90654" lon="5.24713">
        <ele>445.1</ele>
        <time>2015-06-19T05:27:31Z</time>
      </trkpt>
      <trkpt lat="49.90669" lon="5.24681">
        <ele>444.8</ele>
        <time>2015-06-19T05:27:31Z</time>
      </trkpt>
      <trkpt lat="49.90737" lon="5.24597">
        <ele>442.4</ele>
        <time>2015-06-19T05:27:31Z</time>
      </trkpt>
      <trkpt lat="49.90756" lon="5.24528">
        <ele>442.6</ele>
        <time>2015-06-19T05:27:31Z</time>
      </trkpt>
      <trkpt lat="49.90787" lon="5.24389">
        <ele>442.3</ele>
        <time>2015-06-19T05:27:31Z</time>
      </trkpt>
      <trkpt lat="49.90805" lon="5.24322">
        <ele>442.4</ele>
        <time>2015-06-19T05:27:31Z</time>
      </trkpt>
      <trkpt lat="49.90847" lon="5.24234">
        <ele>444.9</ele>
        <time>2015-06-19T05:27:31Z</time>
      </trkpt>
      <trkpt lat="49.90874" lon="5.24146">
        <ele>448.7</ele>
        <time>2015-06-19T05:27:31Z</time>
      </trkpt>
      <trkpt lat="49.90889" lon="5.23987">
        <ele>453</ele>
        <time>2015-06-19T05:27:31Z</time>
      </trkpt>
      <trkpt lat="49.90876" lon="5.23837">
        <ele>453.5</ele>
        <time>2015-06-19T05:27:31Z</time>
      </trkpt>
      <trkpt lat="49.90831" lon="5.23642">
        <ele>454.2</ele>
        <time>2015-06-19T05:27:31Z</time>
      </trkpt>
      <trkpt lat="49.90788" lon="5.23415">
        <ele>450.3</ele>
        <time>2015-06-19T05:27:31Z</time>
      </trkpt>
      <trkpt lat="49.90738" lon="5.23168">
        <ele>444</ele>
        <time>2015-06-19T05:27:31Z</time>
      </trkpt>
      <trkpt lat="49.90687" lon="5.22957">
        <ele>442.3</ele>
        <time>2015-06-19T05:27:31Z</time>
      </trkpt>
      <trkpt lat="49.90669" lon="5.22829">
        <ele>441.8</ele>
        <time>2015-06-19T05:27:31Z</time>
      </trkpt>
      <trkpt lat="49.90654" lon="5.22676">
        <ele>441.9</ele>
        <time>2015-06-19T05:27:31Z</time>
      </trkpt>
      <trkpt lat="49.90665" lon="5.22597">
        <ele>440.1</ele>
        <time>2015-06-19T05:27:31Z</time>
      </trkpt>
      <trkpt lat="49.90698" lon="5.22511">
        <ele>439.7</ele>
        <time>2015-06-19T05:27:31Z</time>
      </trkpt>
      <trkpt lat="49.90725" lon="5.22417">
        <ele>439.7</ele>
        <time>2015-06-19T05:27:31Z</time>
      </trkpt>
      <trkpt lat="49.9074" lon="5.22329">
        <ele>439.1</ele>
        <time>2015-06-19T05:27:31Z</time>
      </trkpt>
      <trkpt lat="49.90765" lon="5.22234">
        <ele>437.7</ele>
        <time>2015-06-19T05:27:31Z</time>
      </trkpt>
      <trkpt lat="49.90812" lon="5.22241">
        <ele>435.5</ele>
        <time>2015-06-19T05:27:31Z</time>
      </trkpt>
      <trkpt lat="49.90801" lon="5.22196">
        <ele>436.3</ele>
        <time>2015-06-19T05:27:31Z</time>
      </trkpt>
      <trkpt lat="49.9082" lon="5.22106">
        <ele>434.9</ele>
        <time>2015-06-19T05:27:31Z</time>
      </trkpt>
      <trkpt lat="49.9086" lon="5.21973">
        <ele>432</ele>
        <time>2015-06-19T05:27:31Z</time>
      </trkpt>
      <trkpt lat="49.90898" lon="5.21844">
        <ele>430.4</ele>
        <time>2015-06-19T05:27:31Z</time>
      </trkpt>
      <trkpt lat="49.90932" lon="5.21711">
        <ele>432.4</ele>
        <time>2015-06-19T05:27:31Z</time>
      </trkpt>
      <trkpt lat="49.90934" lon="5.21614">
        <ele>434.3</ele>
        <time>2015-06-19T05:27:31Z</time>
      </trkpt>
      <trkpt lat="49.90928" lon="5.21518">
        <ele>436.6</ele>
        <time>2015-06-19T05:27:31Z</time>
      </trkpt>
      <trkpt lat="49.90908" lon="5.21419">
        <ele>437.6</ele>
        <time>2015-06-19T05:27:31Z</time>
      </trkpt>
      <trkpt lat="49.90905" lon="5.21316">
        <ele>436.9</ele>
        <time>2015-06-19T05:27:31Z</time>
      </trkpt>
      <trkpt lat="49.9091" lon="5.21252">
        <ele>434.8</ele>
        <time>2015-06-19T05:27:31Z</time>
      </trkpt>
      <trkpt lat="49.90898" lon="5.21138">
        <ele>431.3</ele>
        <time>2015-06-19T05:27:31Z</time>
      </trkpt>
      <trkpt lat="49.90884" lon="5.21061">
        <ele>429.7</ele>
        <time>2015-06-19T05:27:31Z</time>
      </trkpt>
      <trkpt lat="49.90842" lon="5.2093">
        <ele>428.9</ele>
        <time>2015-06-19T05:27:31Z</time>
      </trkpt>
      <trkpt lat="49.90797" lon="5.20807">
        <ele>428.3</ele>
        <time>2015-06-19T05:27:31Z</time>
      </trkpt>
      <trkpt lat="49.90762" lon="5.20711">
        <ele>424.6</ele>
        <time>2015-06-19T05:27:31Z</time>
      </trkpt>
      <trkpt lat="49.90733" lon="5.20586">
        <ele>420.1</ele>
        <time>2015-06-19T05:27:31Z</time>
      </trkpt>
      <trkpt lat="49.90711" lon="5.20462">
        <ele>414.6</ele>
        <time>2015-06-19T05:27:31Z</time>
      </trkpt>
      <trkpt lat="49.90717" lon="5.20368">
        <ele>412.2</ele>
        <time>2015-06-19T05:27:31Z</time>
      </trkpt>
      <trkpt lat="49.90723" lon="5.20237">
        <ele>413</ele>
        <time>2015-06-19T05:27:31Z</time>
      </trkpt>
      <trkpt lat="49.9072" lon="5.20155">
        <ele>414.5</ele>
        <time>2015-06-19T05:27:31Z</time>
      </trkpt>
      <trkpt lat="49.90643" lon="5.20046">
        <ele>418.7</ele>
        <time>2015-06-19T05:27:31Z</time>
      </trkpt>
      <trkpt lat="49.90577" lon="5.20059">
        <ele>420.3</ele>
        <time>2015-06-19T05:27:31Z</time>
      </trkpt>
      <trkpt lat="49.9054" lon="5.20108">
        <ele>422.6</ele>
        <time>2015-06-19T05:27:31Z</time>
      </trkpt>
      <trkpt lat="49.90482" lon="5.20159">
        <ele>423.9</ele>
        <time>2015-06-19T05:27:31Z</time>
      </trkpt>
      <trkpt lat="49.9037" lon="5.20228">
        <ele>424.5</ele>
        <time>2015-06-19T05:27:31Z</time>
      </trkpt>
      <trkpt lat="49.90294" lon="5.2029">
        <ele>425</ele>
        <time>2015-06-19T05:27:31Z</time>
      </trkpt>
      <trkpt lat="49.90228" lon="5.20374">
        <ele>425.8</ele>
        <time>2015-06-19T05:27:31Z</time>
      </trkpt>
      <trkpt lat="49.90153" lon="5.20432">
        <ele>428.5</ele>
        <time>2015-06-19T05:27:31Z</time>
      </trkpt>
      <trkpt lat="49.90044" lon="5.2049">
        <ele>427</ele>
        <time>2015-06-19T05:27:31Z</time>
      </trkpt>
      <trkpt lat="49.89933" lon="5.20565">
        <ele>423.5</ele>
        <time>2015-06-19T05:27:31Z</time>
      </trkpt>
      <trkpt lat="49.89876" lon="5.20683">
        <ele>426.7</ele>
        <time>2015-06-19T05:27:31Z</time>
      </trkpt>
      <trkpt lat="49.89843" lon="5.20756">
        <ele>430.7</ele>
        <time>2015-06-19T05:27:31Z</time>
      </trkpt>
      <trkpt lat="49.89833" lon="5.20835">
        <ele>433</ele>
        <time>2015-06-19T05:27:31Z</time>
      </trkpt>
      <trkpt lat="49.89816" lon="5.20908">
        <ele>433.8</ele>
        <time>2015-06-19T05:27:31Z</time>
      </trkpt>
      <trkpt lat="49.89787" lon="5.2093">
        <ele>435.3</ele>
        <time>2015-06-19T05:27:31Z</time>
      </trkpt>
      <trkpt lat="49.89764" lon="5.20898">
        <ele>436.2</ele>
        <time>2015-06-19T05:27:31Z</time>
      </trkpt>
      <trkpt lat="49.89698" lon="5.20889">
        <ele>437.9</ele>
        <time>2015-06-19T05:27:31Z</time>
      </trkpt>
      <trkpt lat="49.89643" lon="5.20867">
        <ele>439.8</ele>
        <time>2015-06-19T05:27:31Z</time>
      </trkpt>
      <trkpt lat="49.89555" lon="5.20816">
        <ele>443.4</ele>
        <time>2015-06-19T05:27:31Z</time>
      </trkpt>
      <trkpt lat="49.89447" lon="5.20812">
        <ele>446</ele>
        <time>2015-06-19T05:27:31Z</time>
      </trkpt>
      <trkpt lat="49.89355" lon="5.20775">
        <ele>446.8</ele>
        <time>2015-06-19T05:27:31Z</time>
      </trkpt>
      <trkpt lat="49.89281" lon="5.20737">
        <ele>446.1</ele>
        <time>2015-06-19T05:27:31Z</time>
      </trkpt>
      <trkpt lat="49.89209" lon="5.20743">
        <ele>445</ele>
        <time>2015-06-19T05:27:31Z</time>
      </trkpt>
      <trkpt lat="49.89136" lon="5.20786">
        <ele>445.1</ele>
        <time>2015-06-19T05:27:31Z</time>
      </trkpt>
      <trkpt lat="49.89066" lon="5.20803">
        <ele>446.1</ele>
        <time>2015-06-19T05:27:31Z</time>
      </trkpt>
      <trkpt lat="49.88969" lon="5.20795">
        <ele>448.5</ele>
        <time>2015-06-19T05:27:31Z</time>
      </trkpt>
      <trkpt lat="49.88805" lon="5.20863">
        <ele>452</ele>
        <time>2015-06-19T05:27:31Z</time>
      </trkpt>
      <trkpt lat="49.88653" lon="5.20932">
        <ele>448.5</ele>
        <time>2015-06-19T05:27:31Z</time>
      </trkpt>
      <trkpt lat="49.88506" lon="5.21026">
        <ele>439.4</ele>
        <time>2015-06-19T05:27:31Z</time>
      </trkpt>
      <trkpt lat="49.88351" lon="5.21078">
        <ele>436.5</ele>
        <time>2015-06-19T05:27:31Z</time>
      </trkpt>
      <trkpt lat="49.88274" lon="5.21176">
        <ele>433.8</ele>
        <time>2015-06-19T05:27:31Z</time>
      </trkpt>
      <trkpt lat="49.88238" lon="5.21224">
        <ele>433.2</ele>
        <time>2015-06-19T05:27:31Z</time>
      </trkpt>
      <trkpt lat="49.88161" lon="5.21194">
        <ele>429</ele>
        <time>2015-06-19T05:27:31Z</time>
      </trkpt>
      <trkpt lat="49.88086" lon="5.21185">
        <ele>427.3</ele>
        <time>2015-06-19T05:27:31Z</time>
      </trkpt>
      <trkpt lat="49.88053" lon="5.21305">
        <ele>429.8</ele>
        <time>2015-06-19T05:27:31Z</time>
      </trkpt>
      <trkpt lat="49.88039" lon="5.21378">
        <ele>426.6</ele>
        <time>2015-06-19T05:27:31Z</time>
      </trkpt>
      <trkpt lat="49.88011" lon="5.21485">
        <ele>427.9</ele>
        <time>2015-06-19T05:27:31Z</time>
      </trkpt>
      <trkpt lat="49.88034" lon="5.21606">
        <ele>433.1</ele>
        <time>2015-06-19T05:27:31Z</time>
      </trkpt>
      <trkpt lat="49.88053" lon="5.21743">
        <ele>434.9</ele>
        <time>2015-06-19T05:27:31Z</time>
      </trkpt>
      <trkpt lat="49.88069" lon="5.21932">
        <ele>432</ele>
        <time>2015-06-19T05:27:31Z</time>
      </trkpt>
      <trkpt lat="49.88053" lon="5.22103">
        <ele>431.5</ele>
        <time>2015-06-19T05:27:31Z</time>
      </trkpt>
      <trkpt lat="49.88028" lon="5.22271">
        <ele>435.8</ele>
        <time>2015-06-19T05:27:31Z</time>
      </trkpt>
      <trkpt lat="49.88" lon="5.22421">
        <ele>439</ele>
        <time>2015-06-19T05:27:31Z</time>
      </trkpt>
      <trkpt lat="49.8802" lon="5.22627">
        <ele>434.3</ele>
        <time>2015-06-19T05:27:31Z</time>
      </trkpt>
      <trkpt lat="49.88047" lon="5.22799">
        <ele>430</ele>
        <time>2015-06-19T05:27:31Z</time>
      </trkpt>
      <trkpt lat="49.88097" lon="5.22988">
        <ele>424.9</ele>
        <time>2015-06-19T05:27:31Z</time>
      </trkpt>
      <trkpt lat="49.88147" lon="5.23168">
        <ele>422.6</ele>
        <time>2015-06-19T05:27:31Z</time>
      </trkpt>
      <trkpt lat="49.88177" lon="5.23266">
        <ele>424.5</ele>
        <time>2015-06-19T05:27:31Z</time>
      </trkpt>
      <trkpt lat="49.88147" lon="5.23352">
        <ele>419.8</ele>
        <time>2015-06-19T05:27:31Z</time>
      </trkpt>
      <trkpt lat="49.88116" lon="5.23395">
        <ele>420.2</ele>
        <time>2015-06-19T05:27:31Z</time>
      </trkpt>
      <trkpt lat="49.8808" lon="5.23468">
        <ele>427</ele>
        <time>2015-06-19T05:27:31Z</time>
      </trkpt>
      <trkpt lat="49.8802" lon="5.23545">
        <ele>429</ele>
        <time>2015-06-19T05:27:31Z</time>
      </trkpt>
      <trkpt lat="49.87989" lon="5.23631">
        <ele>430.1</ele>
        <time>2015-06-19T05:27:31Z</time>
      </trkpt>
      <trkpt lat="49.87962" lon="5.23683">
        <ele>431</ele>
        <time>2015-06-19T05:27:31Z</time>
      </trkpt>
      <trkpt lat="49.87953" lon="5.23726">
        <ele>431.7</ele>
        <time>2015-06-19T05:27:31Z</time>
      </trkpt>
      <trkpt lat="49.8797" lon="5.23824">
        <ele>431.7</ele>
        <time>2015-06-19T05:27:31Z</time>
      </trkpt>
      <trkpt lat="49.88008" lon="5.23923">
        <ele>432.8</ele>
        <time>2015-06-19T05:27:31Z</time>
      </trkpt>
      <trkpt lat="49.88031" lon="5.23979">
        <ele>433</ele>
        <time>2015-06-19T05:27:31Z</time>
      </trkpt>
      <trkpt lat="49.87995" lon="5.23996">
        <ele>433.7</ele>
        <time>2015-06-19T05:27:31Z</time>
      </trkpt>
      <trkpt lat="49.87948" lon="5.23966">
        <ele>433.1</ele>
        <time>2015-06-19T05:27:31Z</time>
      </trkpt>
    </trkseg>
  </trk>
</gpx>